Kokshetau Airport


Codes: UACK/KOV
Name: Kokshetau Airport
City: Kokshetau
Country: Kazakhstan
Elevation: 900 ft.

Photos at Kokshetau Airport


   Photos courtesy of SpottingLog. You can add your own sightings and photos by signing up for a free trial today.



No photos found.

Weather at Kokshetau Airport


Time (UTC)DescriptionTempratureWindCloud coverageVisibilityPressureHumidity
19-Apr-2024 06:00Few Clouds17°C4 mph, NW21%10000m1019hPa66%
19-Apr-2024 09:00Few Clouds20°C4 mph, W16%10000m1020hPa57%
19-Apr-2024 12:00Broken Clouds23°C7 mph, NW52%10000m1020hPa45%
19-Apr-2024 15:00Overcast Clouds18°C4 mph, NE100%10000m1021hPa67%
19-Apr-2024 18:00Overcast Clouds16°C4 mph, NE93%10000m1022hPa78%
19-Apr-2024 21:00Broken Clouds15°C4 mph, SE60%10000m1022hPa80%
20-Apr-2024 00:00Scattered Clouds14°C2 mph, S39%10000m1023hPa81%
20-Apr-2024 03:00Clear Sky17°C2 mph, SW9%10000m1024hPa66%
20-Apr-2024 06:00Clear Sky21°C2 mph, S5%10000m1024hPa50%
20-Apr-2024 09:00Clear Sky24°C2 mph, NW0%10000m1024hPa39%
20-Apr-2024 12:00Clear Sky25°C2 mph, N0%10000m1024hPa34%
20-Apr-2024 15:00Clear Sky21°C4 mph, SE0%10000m1024hPa46%
20-Apr-2024 18:00Clear Sky19°C4 mph, S0%10000m1025hPa54%
20-Apr-2024 21:00Clear Sky17°C7 mph, SW0%10000m1025hPa63%
21-Apr-2024 00:00Clear Sky15°C7 mph, SW0%10000m1026hPa70%
21-Apr-2024 03:00Clear Sky19°C7 mph, SW0%10000m1026hPa59%
21-Apr-2024 06:00Clear Sky24°C7 mph, W0%10000m1025hPa42%
21-Apr-2024 09:00Clear Sky26°C7 mph, W0%10000m1024hPa30%
21-Apr-2024 12:00Clear Sky25°C9 mph, NW2%10000m1024hPa30%
21-Apr-2024 15:00Clear Sky21°C4 mph, NW0%10000m1024hPa44%
21-Apr-2024 18:00Clear Sky19°C7 mph, NW7%10000m1023hPa53%
21-Apr-2024 21:00Light Rain15°C9 mph, NE37%10000m1025hPa85%
22-Apr-2024 00:00Few Clouds13°C9 mph, NE22%10000m1026hPa89%
22-Apr-2024 03:00Few Clouds15°C11 mph, NE14%10000m1027hPa76%
22-Apr-2024 06:00Few Clouds17°C9 mph, NE18%10000m1027hPa54%
22-Apr-2024 09:00Clear Sky19°C7 mph, NE8%10000m1026hPa29%
22-Apr-2024 12:00Clear Sky19°C9 mph, NE5%10000m1025hPa21%
22-Apr-2024 15:00Clear Sky15°C7 mph, NE8%10000m1025hPa37%
22-Apr-2024 18:00Clear Sky13°C7 mph, NE10%10000m1025hPa49%
22-Apr-2024 21:00Few Clouds11°C4 mph, E24%10000m1025hPa53%
23-Apr-2024 00:00Few Clouds9°C7 mph, NE17%10000m1025hPa60%
23-Apr-2024 03:00Few Clouds11°C11 mph, NE16%10000m1026hPa59%
23-Apr-2024 06:00Scattered Clouds13°C9 mph, NE37%10000m1025hPa47%
23-Apr-2024 09:00Broken Clouds15°C9 mph, NE61%10000m1024hPa42%
23-Apr-2024 12:00Broken Clouds14°C11 mph, NE80%10000m1022hPa44%
23-Apr-2024 15:00Overcast Clouds12°C11 mph, NE99%10000m1022hPa52%
23-Apr-2024 18:00Overcast Clouds9°C16 mph, E96%10000m1021hPa52%
23-Apr-2024 21:00Overcast Clouds8°C16 mph, E95%10000m1020hPa48%
24-Apr-2024 00:00Overcast Clouds6°C16 mph, E96%10000m1019hPa53%
24-Apr-2024 03:00Overcast Clouds6°C13 mph, E99%10000m1019hPa56%